createdAt,value
2022-08-04T00:03:12.202Z,24.94569
2022-08-04T00:08:13.151Z,25.15225
2022-08-04T00:13:14.063Z,25.40137
2022-08-04T00:18:14.959Z,25.54328
2022-08-04T00:23:15.857Z,25.70583
2022-08-04T00:28:16.873Z,25.7262
2022-08-04T00:38:18.260Z,25.71581
2022-08-04T00:43:19.374Z,25.86069
2022-08-04T00:48:20.332Z,25.9984
2022-08-04T00:53:21.410Z,26.1371
2022-08-04T00:58:22.297Z,26.23712
2022-08-04T01:03:23.251Z,26.17551
2022-08-04T01:08:24.142Z,26.22579
2022-08-04T01:13:25.103Z,26.25184
2022-08-04T01:18:26.113Z,26.40955
2022-08-04T01:23:27.048Z,26.60167
2022-08-04T01:33:28.432Z,26.26134
2022-08-04T01:38:29.342Z,26.21222
2022-08-04T01:43:30.204Z,26.2899
2022-08-04T01:48:31.112Z,26.40168
2022-08-04T01:53:32.747Z,26.59223
2022-08-04T01:58:33.648Z,26.81133
2022-08-04T02:04:20.548Z,27.0281
2022-08-04T02:09:23.964Z,27.15508
2022-08-04T02:14:24.850Z,27.46126
2022-08-04T02:19:25.767Z,27.45841
2022-08-04T02:24:26.740Z,27.65622
2022-08-04T02:29:31.816Z,27.86494
2022-08-04T02:34:33.146Z,27.73208
2022-08-04T02:39:48.027Z,27.88235
2022-08-04T02:44:50.234Z,28.0519
2022-08-04T02:49:51.177Z,28.09883
2022-08-04T02:54:52.107Z,28.14441
2022-08-04T02:59:53.072Z,28.25432
2022-08-04T03:04:54.007Z,28.35383
2022-08-04T03:09:55.142Z,28.49582
2022-08-04T03:14:56.075Z,28.63007
2022-08-04T03:19:56.995Z,28.44436
2022-08-04T03:24:57.905Z,28.47181
2022-08-04T03:29:58.835Z,28.66565
2022-08-04T03:40:08.997Z,29.01866
2022-08-04T03:45:23.078Z,29.02674
2022-08-04T03:50:25.241Z,29.00928
2022-08-04T03:55:26.151Z,28.90451
2022-08-04T04:00:27.155Z,29.0707
2022-08-04T04:05:28.164Z,29.11434
2022-08-04T04:10:47.866Z,28.76378
2022-08-04T04:15:50.208Z,28.53097
2022-08-04T04:20:51.396Z,28.64504
2022-08-04T04:25:52.364Z,28.6528
2022-08-04T04:35:53.798Z,28.66182
2022-08-04T04:40:55.158Z,28.67688
2022-08-04T04:45:56.193Z,28.87799
2022-08-04T04:50:57.144Z,28.66626
2022-08-04T04:55:58.098Z,28.8199
2022-08-04T05:00:59.028Z,28.77648
2022-08-04T05:06:00.004Z,28.777
2022-08-04T05:11:00.983Z,28.61698
2022-08-04T05:16:02.002Z,28.4282
2022-08-04T05:21:02.887Z,28.01827
2022-08-04T05:26:03.909Z,27.47159
2022-08-04T05:31:09.867Z,27.40129
2022-08-04T05:36:19.035Z,27.2284
2022-08-04T05:41:32.413Z,26.85823
2022-08-04T05:46:46.096Z,26.44563
2022-08-04T05:51:55.667Z,25.70462
2022-08-04T05:56:56.571Z,25.58666
2022-08-04T06:01:57.927Z,25.01869
2022-08-04T06:06:59.087Z,24.78769
2022-08-04T06:12:03.826Z,24.518
2022-08-04T06:17:05.060Z,24.5901
2022-08-04T06:22:05.981Z,24.22635
2022-08-04T06:27:06.866Z,23.98768
2022-08-04T06:32:28.760Z,23.98282
2022-08-04T06:37:43.462Z,23.32259
2022-08-04T06:42:45.133Z,23.04487
2022-08-04T06:47:46.079Z,22.69931
2022-08-04T06:52:47.089Z,21.77778
2022-08-04T06:57:47.992Z,21.58293
2022-08-04T07:02:48.907Z,21.32083
2022-08-04T07:07:57.240Z,20.91475
2022-08-04T07:12:58.935Z,20.36809
2022-08-04T07:18:00.215Z,20.323
2022-08-04T07:23:01.625Z,20.07919
2022-08-04T07:28:02.576Z,19.76128
2022-08-04T07:33:03.494Z,19.36851
2022-08-04T07:38:04.454Z,19.34857
2022-08-04T07:43:10.714Z,19.10034
2022-08-04T07:48:14.814Z,18.86381
2022-08-04T07:53:54.494Z,18.42019
2022-08-04T07:58:56.609Z,17.12118
2022-08-04T08:03:57.813Z,17.4118
2022-08-04T08:08:58.828Z,16.84429
2022-08-04T08:13:59.802Z,16.8319
2022-08-04T08:19:00.731Z,16.82997
2022-08-04T08:24:01.772Z,16.65271
2022-08-04T08:29:02.708Z,16.76628
2022-08-04T08:34:03.619Z,16.60886
2022-08-04T08:39:04.743Z,16.4471
2022-08-04T08:44:07.740Z,16.07647
2022-08-04T08:50:02.320Z,15.64816
2022-08-04T08:55:04.418Z,14.31524
2022-08-04T09:00:05.393Z,14.7296
2022-08-04T09:05:06.374Z,14.60644
2022-08-04T09:15:07.915Z,14.23813
2022-08-04T09:20:08.823Z,14.31836
2022-08-04T09:25:09.808Z,14.29453
2022-08-04T09:30:10.776Z,14.21217
2022-08-04T09:35:15.165Z,14.09353
2022-08-04T09:40:29.388Z,13.84773
2022-08-04T09:45:44.018Z,13.43681
2022-08-04T09:50:50.058Z,13.45099
2022-08-04T09:55:54.409Z,13.29777
2022-08-04T10:00:56.683Z,13.24184
2022-08-04T10:05:57.664Z,13.17936
2022-08-04T10:10:58.570Z,13.12589
2022-08-04T10:15:59.533Z,12.93905
2022-08-04T10:26:05.525Z,12.80482
2022-08-04T10:31:09.459Z,12.55551
2022-08-04T10:36:10.354Z,12.54168
2022-08-04T10:41:11.598Z,12.43737
2022-08-04T10:46:12.764Z,12.32775
2022-08-04T10:51:13.665Z,12.08176
2022-08-04T10:56:14.580Z,11.89537
2022-08-04T11:02:02.109Z,11.7271
2022-08-04T11:07:04.485Z,11.523
2022-08-04T11:12:05.446Z,11.47489
2022-08-04T11:17:06.445Z,11.21201
2022-08-04T11:22:07.651Z,11.14331
2022-08-04T11:27:09.499Z,11.04696
2022-08-04T11:32:10.452Z,11.03432
2022-08-04T11:37:14.156Z,10.97811
2022-08-04T11:42:16.110Z,10.98776
2022-08-04T11:47:17.107Z,11.01076
2022-08-04T11:52:18.125Z,10.68334
2022-08-04T11:57:21.102Z,10.27287
2022-08-04T12:02:22.269Z,10.29624
2022-08-04T12:12:23.843Z,10.19407
2022-08-04T12:17:24.803Z,10.00101
2022-08-04T12:22:31.473Z,9.94665
2022-08-04T12:27:33.151Z,9.82804
2022-08-04T12:32:34.158Z,9.69782
2022-08-04T12:37:35.080Z,9.63838
2022-08-04T12:42:36.072Z,9.57513
2022-08-04T12:47:37.084Z,9.39878
2022-08-04T12:53:01.064Z,9.2039
2022-08-04T12:58:02.947Z,8.85455
2022-08-04T13:03:03.948Z,8.76688
2022-08-04T13:08:04.881Z,8.61923
2022-08-04T13:13:05.840Z,8.52149
2022-08-04T13:18:06.798Z,8.68001
2022-08-04T13:23:21.687Z,8.54372
2022-08-04T13:28:22.992Z,8.42427
2022-08-04T13:33:23.928Z,8.45325
2022-08-04T13:38:24.999Z,8.25263
2022-08-04T13:43:48.446Z,7.88496
2022-08-04T13:49:42.504Z,7.76316
2022-08-04T13:54:55.749Z,7.68935
2022-08-04T13:59:56.651Z,7.73132
2022-08-04T14:04:57.555Z,7.42148
2022-08-04T14:10:04.046Z,7.12677
2022-08-04T14:15:05.300Z,6.92212
2022-08-04T14:20:06.242Z,6.83543
2022-08-04T14:25:07.168Z,6.7156
2022-08-04T14:30:08.116Z,6.75588
2022-08-04T14:35:09.048Z,6.52072
2022-08-04T14:40:29.753Z,6.48527
2022-08-04T14:45:32.087Z,6.54178
2022-08-04T14:50:33.007Z,6.48977
2022-08-04T14:55:34.124Z,6.5464
2022-08-04T15:00:35.027Z,6.6227
2022-08-04T15:05:55.041Z,6.59149
2022-08-04T15:11:06.860Z,6.61611
2022-08-04T15:16:08.739Z,6.73978
2022-08-04T15:21:09.797Z,6.81738
2022-08-04T15:26:10.692Z,6.77467
2022-08-04T15:32:05.473Z,6.90082
2022-08-04T15:37:09.868Z,7.06075
2022-08-04T15:42:16.151Z,7.12319
2022-08-04T15:47:20.031Z,7.34505
2022-08-04T15:52:21.391Z,7.38249
2022-08-04T15:57:23.254Z,7.52927
2022-08-04T16:02:24.553Z,7.67226
2022-08-04T16:07:25.709Z,7.81708
2022-08-04T16:12:52.846Z,7.90159
2022-08-04T16:17:55.253Z,8.06367
2022-08-04T16:22:56.503Z,8.14148
2022-08-04T16:27:57.438Z,8.18206
2022-08-04T16:32:58.378Z,8.26884
2022-08-04T16:37:59.386Z,8.43446
2022-08-04T16:43:00.514Z,8.59436
2022-08-04T16:48:01.595Z,8.74295
2022-08-04T16:53:02.600Z,8.85899
2022-08-04T16:58:03.593Z,8.93035
2022-08-04T17:03:04.510Z,9.0504
2022-08-04T17:08:28.650Z,9.20073
2022-08-04T17:14:03.840Z,9.25056
2022-08-04T17:19:05.913Z,9.3354
2022-08-04T17:24:15.111Z,9.4113
2022-08-04T17:29:20.034Z,9.5544
2022-08-04T17:34:21.414Z,9.69755
2022-08-04T17:39:22.464Z,9.76502
2022-08-04T17:44:23.633Z,9.95668
2022-08-04T17:49:26.717Z,10.21865
2022-08-04T17:54:36.601Z,10.69712
2022-08-04T17:59:56.997Z,11.16434
2022-08-04T18:05:06.092Z,11.4698
2022-08-04T18:10:30.654Z,11.86542
2022-08-04T18:15:44.414Z,12.14833
2022-08-04T18:20:47.849Z,12.46
2022-08-04T18:25:52.302Z,13.11198
2022-08-04T18:30:55.358Z,13.53345
2022-08-04T18:36:37.270Z,14.35956
2022-08-04T18:42:01.934Z,15.08236
2022-08-04T18:47:19.179Z,15.46118
2022-08-04T18:52:23.890Z,15.68619
2022-08-04T18:57:58.429Z,15.81084
2022-08-04T19:03:01.291Z,15.84983
2022-08-04T19:08:32.518Z,15.90271
2022-08-04T19:13:36.211Z,16.41738
2022-08-04T19:18:37.351Z,16.85592
2022-08-04T19:24:27.301Z,16.83443
2022-08-04T19:29:37.918Z,17.03832
2022-08-04T19:34:41.919Z,16.98877
2022-08-04T19:39:46.938Z,17.60054
2022-08-04T19:44:48.857Z,17.71539
2022-08-04T19:50:04.236Z,17.83566
2022-08-04T19:55:11.334Z,17.88172
2022-08-04T20:00:12.357Z,17.76151
2022-08-04T20:05:13.322Z,17.9717
2022-08-04T20:10:14.250Z,18.37922
2022-08-04T20:15:15.237Z,18.50251
2022-08-04T20:20:16.177Z,18.62663
2022-08-04T20:25:35.625Z,18.66959
2022-08-04T20:30:38.096Z,18.56306
2022-08-04T20:36:00.651Z,18.41753
2022-08-04T20:41:06.905Z,18.42443
2022-08-04T20:46:18.682Z,18.40037
2022-08-04T20:51:31.974Z,18.22164
2022-08-04T20:56:34.528Z,17.77343
2022-08-04T21:01:35.519Z,17.64394
2022-08-04T21:06:36.492Z,17.57831
2022-08-04T21:11:37.422Z,17.70332
2022-08-04T21:16:54.936Z,17.71309
2022-08-04T21:21:57.258Z,17.70735
2022-08-04T21:26:59.704Z,17.76071
2022-08-04T21:32:02.623Z,18.11082
2022-08-04T21:37:03.877Z,17.91669
2022-08-04T21:42:38.046Z,17.7989
2022-08-04T21:47:46.543Z,17.92584
2022-08-04T21:52:50.341Z,18.00061
2022-08-04T21:57:51.403Z,18.0993
2022-08-04T22:02:53.304Z,18.12955
2022-08-04T22:07:54.632Z,18.19104
2022-08-04T22:12:55.732Z,18.40324
2022-08-04T22:17:59.591Z,18.63226
2022-08-04T22:23:15.401Z,18.761
2022-08-04T22:28:18.714Z,18.71632
2022-08-04T22:33:19.872Z,18.93464
2022-08-04T22:38:41.926Z,18.96698
2022-08-04T22:43:54.829Z,19.20878
2022-08-04T22:48:56.386Z,19.25373
2022-08-04T22:53:57.329Z,19.44671
2022-08-04T22:59:01.375Z,19.48863
2022-08-04T23:04:02.969Z,19.71744
2022-08-04T23:09:04.839Z,19.96322
2022-08-04T23:14:05.851Z,20.08839
2022-08-04T23:19:10.044Z,20.14164
2022-08-04T23:24:16.220Z,20.30667
2022-08-04T23:29:17.136Z,20.33552
2022-08-04T23:34:18.703Z,20.49974
2022-08-04T23:39:19.885Z,20.62689
2022-08-04T23:44:25.152Z,20.6843
2022-08-04T23:49:43.562Z,20.68027
2022-08-04T23:54:46.160Z,20.79308
2022-08-04T23:59:52.597Z,20.80198
